sensor_id;sensor_type;location;lat;lon;timestamp;P1;durP1;ratioP1;P2;durP2;ratioP2
6378;SDS011;3222;48.858;10.128;2022-08-19T00:01:40;6.97;;;6.37;;
6378;SDS011;3222;48.858;10.128;2022-08-19T00:04:08;7.13;;;5.97;;
6378;SDS011;3222;48.858;10.128;2022-08-19T00:06:38;6.85;;;6.18;;
6378;SDS011;3222;48.858;10.128;2022-08-19T00:09:07;6.32;;;5.78;;
6378;SDS011;3222;48.858;10.128;2022-08-19T00:11:34;7.07;;;6.37;;
6378;SDS011;3222;48.858;10.128;2022-08-19T00:14:03;7.00;;;6.40;;
6378;SDS011;3222;48.858;10.128;2022-08-19T00:16:37;7.33;;;6.50;;
6378;SDS011;3222;48.858;10.128;2022-08-19T00:19:04;8.02;;;6.53;;
6378;SDS011;3222;48.858;10.128;2022-08-19T00:21:30;7.17;;;6.57;;
6378;SDS011;3222;48.858;10.128;2022-08-19T00:23:56;8.07;;;6.90;;
6378;SDS011;3222;48.858;10.128;2022-08-19T00:26:23;7.05;;;6.45;;
6378;SDS011;3222;48.858;10.128;2022-08-19T00:28:52;7.50;;;6.70;;
6378;SDS011;3222;48.858;10.128;2022-08-19T00:31:19;7.03;;;6.43;;
6378;SDS011;3222;48.858;10.128;2022-08-19T00:33:45;7.20;;;6.60;;
6378;SDS011;3222;48.858;10.128;2022-08-19T00:36:12;7.10;;;6.50;;
6378;SDS011;3222;48.858;10.128;2022-08-19T00:38:38;7.53;;;6.83;;
6378;SDS011;3222;48.858;10.128;2022-08-19T00:41:08;7.25;;;6.63;;
6378;SDS011;3222;48.858;10.128;2022-08-19T00:43:36;8.10;;;7.40;;
6378;SDS011;3222;48.858;10.128;2022-08-19T00:46:03;7.97;;;7.17;;
6378;SDS011;3222;48.858;10.128;2022-08-19T00:48:29;8.53;;;7.63;;
6378;SDS011;3222;48.858;10.128;2022-08-19T00:50:56;8.55;;;7.65;;
6378;SDS011;3222;48.858;10.128;2022-08-19T00:53:24;8.27;;;7.57;;
6378;SDS011;3222;48.858;10.128;2022-08-19T00:55:53;7.83;;;7.13;;
6378;SDS011;3222;48.858;10.128;2022-08-19T00:58:22;7.77;;;7.03;;
6378;SDS011;3222;48.858;10.128;2022-08-19T01:00:53;7.77;;;7.03;;
6378;SDS011;3222;48.858;10.128;2022-08-19T01:03:20;7.70;;;7.00;;
6378;SDS011;3222;48.858;10.128;2022-08-19T01:05:47;9.10;;;7.50;;
6378;SDS011;3222;48.858;10.128;2022-08-19T01:08:14;8.00;;;7.30;;
6378;SDS011;3222;48.858;10.128;2022-08-19T01:10:43;8.30;;;7.57;;
6378;SDS011;3222;48.858;10.128;2022-08-19T01:13:13;9.20;;;8.40;;
6378;SDS011;3222;48.858;10.128;2022-08-19T01:15:42;8.88;;;8.00;;
6378;SDS011;3222;48.858;10.128;2022-08-19T01:18:12;8.50;;;7.70;;
6378;SDS011;3222;48.858;10.128;2022-08-19T01:20:39;11.33;;;7.93;;
6378;SDS011;3222;48.858;10.128;2022-08-19T01:23:06;9.80;;;8.80;;
6378;SDS011;3222;48.858;10.128;2022-08-19T01:25:34;13.13;;;8.80;;
6378;SDS011;3222;48.858;10.128;2022-08-19T01:28:14;10.67;;;8.67;;
6378;SDS011;3222;48.858;10.128;2022-08-19T01:30:45;14.50;;;10.33;;
6378;SDS011;3222;48.858;10.128;2022-08-19T01:33:12;11.07;;;9.43;;
6378;SDS011;3222;48.858;10.128;2022-08-19T01:35:38;10.53;;;9.07;;
6378;SDS011;3222;48.858;10.128;2022-08-19T01:38:05;10.63;;;9.63;;
6378;SDS011;3222;48.858;10.128;2022-08-19T01:40:34;14.33;;;10.17;;
6378;SDS011;3222;48.858;10.128;2022-08-19T01:43:01;13.67;;;10.30;;
6378;SDS011;3222;48.858;10.128;2022-08-19T01:45:29;13.07;;;10.50;;
6378;SDS011;3222;48.858;10.128;2022-08-19T01:47:56;15.17;;;10.33;;
6378;SDS011;3222;48.858;10.128;2022-08-19T01:50:23;11.67;;;10.57;;
6378;SDS011;3222;48.858;10.128;2022-08-19T01:52:49;13.67;;;11.53;;
6378;SDS011;3222;48.858;10.128;2022-08-19T01:55:17;10.93;;;9.90;;
6378;SDS011;3222;48.858;10.128;2022-08-19T01:57:46;11.32;;;10.20;;
6378;SDS011;3222;48.858;10.128;2022-08-19T02:00:16;12.13;;;10.65;;
6378;SDS011;3222;48.858;10.128;2022-08-19T02:02:43;11.57;;;10.37;;
6378;SDS011;3222;48.858;10.128;2022-08-19T02:05:09;12.60;;;10.07;;
6378;SDS011;3222;48.858;10.128;2022-08-19T02:07:36;14.03;;;10.87;;
6378;SDS011;3222;48.858;10.128;2022-08-19T02:10:04;11.57;;;10.10;;
6378;SDS011;3222;48.858;10.128;2022-08-19T02:12:32;12.03;;;10.27;;
6378;SDS011;3222;48.858;10.128;2022-08-19T02:14:58;12.80;;;10.32;;
6378;SDS011;3222;48.858;10.128;2022-08-19T02:17:24;10.77;;;9.67;;
6378;SDS011;3222;48.858;10.128;2022-08-19T02:19:50;11.83;;;10.63;;
6378;SDS011;3222;48.858;10.128;2022-08-19T02:22:15;10.97;;;9.87;;
6378;SDS011;3222;48.858;10.128;2022-08-19T02:24:41;14.27;;;11.03;;
6378;SDS011;3222;48.858;10.128;2022-08-19T02:27:07;13.27;;;11.53;;
6378;SDS011;3222;48.858;10.128;2022-08-19T02:29:32;13.90;;;11.53;;
6378;SDS011;3222;48.858;10.128;2022-08-19T02:31:58;14.90;;;12.33;;
6378;SDS011;3222;48.858;10.128;2022-08-19T02:34:24;13.33;;;11.93;;
6378;SDS011;3222;48.858;10.128;2022-08-19T02:36:50;12.57;;;11.27;;
6378;SDS011;3222;48.858;10.128;2022-08-19T02:39:16;13.67;;;12.27;;
6378;SDS011;3222;48.858;10.128;2022-08-19T02:41:43;16.17;;;12.53;;
6378;SDS011;3222;48.858;10.128;2022-08-19T02:44:09;13.37;;;11.97;;
6378;SDS011;3222;48.858;10.128;2022-08-19T02:46:35;12.97;;;11.67;;
6378;SDS011;3222;48.858;10.128;2022-08-19T02:49:05;13.07;;;10.97;;
6378;SDS011;3222;48.858;10.128;2022-08-19T02:51:34;11.53;;;10.43;;
6378;SDS011;3222;48.858;10.128;2022-08-19T02:54:02;11.83;;;10.63;;
6378;SDS011;3222;48.858;10.128;2022-08-19T02:56:29;13.17;;;11.77;;
6378;SDS011;3222;48.858;10.128;2022-08-19T02:58:56;12.37;;;10.70;;
6378;SDS011;3222;48.858;10.128;2022-08-19T03:01:29;11.07;;;9.97;;
6378;SDS011;3222;48.858;10.128;2022-08-19T03:03:58;13.30;;;10.43;;
6378;SDS011;3222;48.858;10.128;2022-08-19T03:06:25;12.83;;;10.90;;
6378;SDS011;3222;48.858;10.128;2022-08-19T03:08:52;11.53;;;10.33;;
6378;SDS011;3222;48.858;10.128;2022-08-19T03:11:22;11.13;;;10.03;;
6378;SDS011;3222;48.858;10.128;2022-08-19T03:13:56;10.80;;;9.70;;
6378;SDS011;3222;48.858;10.128;2022-08-19T03:16:24;11.47;;;10.00;;
6378;SDS011;3222;48.858;10.128;2022-08-19T03:18:51;10.70;;;9.60;;
6378;SDS011;3222;48.858;10.128;2022-08-19T03:21:19;11.00;;;10.00;;
6378;SDS011;3222;48.858;10.128;2022-08-19T03:23:47;11.33;;;10.23;;
6378;SDS011;3222;48.858;10.128;2022-08-19T03:26:12;11.80;;;10.60;;
6378;SDS011;3222;48.858;10.128;2022-08-19T03:28:40;10.77;;;9.77;;
6378;SDS011;3222;48.858;10.128;2022-08-19T03:31:12;11.00;;;9.90;;
6378;SDS011;3222;48.858;10.128;2022-08-19T03:33:39;10.57;;;9.57;;
6378;SDS011;3222;48.858;10.128;2022-08-19T03:36:10;12.63;;;11.13;;
6378;SDS011;3222;48.858;10.128;2022-08-19T03:38:44;11.40;;;10.23;;
6378;SDS011;3222;48.858;10.128;2022-08-19T03:41:14;11.57;;;10.37;;
6378;SDS011;3222;48.858;10.128;2022-08-19T03:43:43;11.40;;;10.20;;
6378;SDS011;3222;48.858;10.128;2022-08-19T03:46:17;13.97;;;12.00;;
6378;SDS011;3222;48.858;10.128;2022-08-19T03:48:48;15.27;;;11.40;;
6378;SDS011;3222;48.858;10.128;2022-08-19T03:51:32;14.53;;;11.87;;
6378;SDS011;3222;48.858;10.128;2022-08-19T03:54:03;12.40;;;10.93;;
6378;SDS011;3222;48.858;10.128;2022-08-19T03:56:34;12.03;;;10.83;;
6378;SDS011;3222;48.858;10.128;2022-08-19T03:59:02;12.40;;;11.07;;
6378;SDS011;3222;48.858;10.128;2022-08-19T04:01:30;12.10;;;10.87;;
6378;SDS011;3222;48.858;10.128;2022-08-19T04:03:56;12.97;;;10.50;;
6378;SDS011;3222;48.858;10.128;2022-08-19T04:06:24;11.88;;;10.48;;
6378;SDS011;3222;48.858;10.128;2022-08-19T04:08:52;11.63;;;10.37;;
6378;SDS011;3222;48.858;10.128;2022-08-19T04:11:20;12.20;;;10.63;;
6378;SDS011;3222;48.858;10.128;2022-08-19T04:13:49;10.83;;;9.73;;
6378;SDS011;3222;48.858;10.128;2022-08-19T04:16:16;11.23;;;10.13;;
6378;SDS011;3222;48.858;10.128;2022-08-19T04:18:42;12.47;;;9.87;;
6378;SDS011;3222;48.858;10.128;2022-08-19T04:21:08;11.70;;;10.47;;
6378;SDS011;3222;48.858;10.128;2022-08-19T04:23:49;12.33;;;10.57;;
6378;SDS011;3222;48.858;10.128;2022-08-19T04:26:19;11.90;;;10.70;;
6378;SDS011;3222;48.858;10.128;2022-08-19T04:28:47;11.80;;;10.40;;
6378;SDS011;3222;48.858;10.128;2022-08-19T04:31:15;11.90;;;10.80;;
6378;SDS011;3222;48.858;10.128;2022-08-19T04:33:43;12.05;;;10.75;;
6378;SDS011;3222;48.858;10.128;2022-08-19T04:36:15;14.57;;;12.37;;
6378;SDS011;3222;48.858;10.128;2022-08-19T04:38:42;13.43;;;12.00;;
6378;SDS011;3222;48.858;10.128;2022-08-19T04:41:08;12.63;;;11.10;;
6378;SDS011;3222;48.858;10.128;2022-08-19T04:43:52;13.00;;;11.47;;
6378;SDS011;3222;48.858;10.128;2022-08-19T04:46:18;12.77;;;11.47;;
6378;SDS011;3222;48.858;10.128;2022-08-19T04:48:45;15.60;;;11.50;;
6378;SDS011;3222;48.858;10.128;2022-08-19T04:51:11;13.70;;;11.90;;
6378;SDS011;3222;48.858;10.128;2022-08-19T04:53:38;13.53;;;11.07;;
6378;SDS011;3222;48.858;10.128;2022-08-19T04:56:09;12.47;;;11.17;;
6378;SDS011;3222;48.858;10.128;2022-08-19T04:58:38;15.30;;;11.43;;
6378;SDS011;3222;48.858;10.128;2022-08-19T05:01:07;13.17;;;11.70;;
6378;SDS011;3222;48.858;10.128;2022-08-19T05:03:36;12.17;;;10.97;;
6378;SDS011;3222;48.858;10.128;2022-08-19T05:06:07;13.13;;;11.80;;
6378;SDS011;3222;48.858;10.128;2022-08-19T05:08:36;14.23;;;11.30;;
6378;SDS011;3222;48.858;10.128;2022-08-19T05:11:07;12.67;;;11.37;;
6378;SDS011;3222;48.858;10.128;2022-08-19T05:13:41;15.03;;;11.73;;
6378;SDS011;3222;48.858;10.128;2022-08-19T05:16:08;13.53;;;12.10;;
6378;SDS011;3222;48.858;10.128;2022-08-19T05:18:35;15.70;;;12.73;;
6378;SDS011;3222;48.858;10.128;2022-08-19T05:21:19;15.23;;;11.97;;
6378;SDS011;3222;48.858;10.128;2022-08-19T05:24:05;13.23;;;11.80;;
6378;SDS011;3222;48.858;10.128;2022-08-19T05:26:35;13.83;;;11.97;;
6378;SDS011;3222;48.858;10.128;2022-08-19T05:29:04;13.90;;;11.93;;
6378;SDS011;3222;48.858;10.128;2022-08-19T05:31:30;13.03;;;11.63;;
6378;SDS011;3222;48.858;10.128;2022-08-19T05:33:56;13.17;;;11.73;;
6378;SDS011;3222;48.858;10.128;2022-08-19T05:36:24;13.80;;;11.83;;
6378;SDS011;3222;48.858;10.128;2022-08-19T05:38:50;13.40;;;11.53;;
6378;SDS011;3222;48.858;10.128;2022-08-19T05:41:18;14.33;;;12.30;;
6378;SDS011;3222;48.858;10.128;2022-08-19T05:43:44;14.00;;;12.30;;
6378;SDS011;3222;48.858;10.128;2022-08-19T05:46:15;16.83;;;11.80;;
6378;SDS011;3222;48.858;10.128;2022-08-19T05:48:43;15.00;;;12.33;;
6378;SDS011;3222;48.858;10.128;2022-08-19T05:51:09;13.70;;;11.97;;
6378;SDS011;3222;48.858;10.128;2022-08-19T05:53:36;14.23;;;12.03;;
6378;SDS011;3222;48.858;10.128;2022-08-19T05:56:05;14.03;;;11.97;;
6378;SDS011;3222;48.858;10.128;2022-08-19T05:58:36;14.27;;;12.77;;
6378;SDS011;3222;48.858;10.128;2022-08-19T06:01:02;15.47;;;12.63;;
6378;SDS011;3222;48.858;10.128;2022-08-19T06:03:34;14.10;;;12.40;;
6378;SDS011;3222;48.858;10.128;2022-08-19T06:06:01;15.50;;;12.13;;
6378;SDS011;3222;48.858;10.128;2022-08-19T06:08:27;15.23;;;12.57;;
6378;SDS011;3222;48.858;10.128;2022-08-19T06:10:53;14.67;;;12.03;;
6378;SDS011;3222;48.858;10.128;2022-08-19T06:13:19;14.77;;;12.07;;
6378;SDS011;3222;48.858;10.128;2022-08-19T06:15:46;13.38;;;12.00;;
6378;SDS011;3222;48.858;10.128;2022-08-19T06:18:12;14.13;;;12.37;;
6378;SDS011;3222;48.858;10.128;2022-08-19T06:20:39;14.97;;;12.40;;
6378;SDS011;3222;48.858;10.128;2022-08-19T06:23:06;12.67;;;11.37;;
6378;SDS011;3222;48.858;10.128;2022-08-19T06:25:31;13.07;;;11.60;;
6378;SDS011;3222;48.858;10.128;2022-08-19T06:27:57;13.57;;;12.07;;
6378;SDS011;3222;48.858;10.128;2022-08-19T06:30:23;13.47;;;12.03;;
6378;SDS011;3222;48.858;10.128;2022-08-19T06:32:49;13.77;;;11.57;;
6378;SDS011;3222;48.858;10.128;2022-08-19T06:35:14;14.07;;;10.97;;
6378;SDS011;3222;48.858;10.128;2022-08-19T06:37:40;15.60;;;11.90;;
6378;SDS011;3222;48.858;10.128;2022-08-19T06:40:07;13.97;;;12.37;;
6378;SDS011;3222;48.858;10.128;2022-08-19T06:42:35;13.43;;;11.97;;
6378;SDS011;3222;48.858;10.128;2022-08-19T06:45:03;14.43;;;11.93;;
6378;SDS011;3222;48.858;10.128;2022-08-19T06:47:30;15.47;;;11.67;;
6378;SDS011;3222;48.858;10.128;2022-08-19T06:50:00;14.27;;;12.27;;
6378;SDS011;3222;48.858;10.128;2022-08-19T06:52:27;13.83;;;11.70;;
6378;SDS011;3222;48.858;10.128;2022-08-19T06:54:54;16.13;;;12.17;;
6378;SDS011;3222;48.858;10.128;2022-08-19T06:57:21;14.97;;;12.17;;
6378;SDS011;3222;48.858;10.128;2022-08-19T06:59:49;13.33;;;11.43;;
6378;SDS011;3222;48.858;10.128;2022-08-19T07:02:15;15.37;;;12.57;;
6378;SDS011;3222;48.858;10.128;2022-08-19T07:04:41;15.73;;;12.07;;
6378;SDS011;3222;48.858;10.128;2022-08-19T07:07:08;15.67;;;11.70;;
6378;SDS011;3222;48.858;10.128;2022-08-19T07:09:38;14.33;;;12.23;;
6378;SDS011;3222;48.858;10.128;2022-08-19T07:12:06;14.20;;;12.60;;
6378;SDS011;3222;48.858;10.128;2022-08-19T07:14:33;14.00;;;12.17;;
6378;SDS011;3222;48.858;10.128;2022-08-19T07:17:03;15.57;;;12.87;;
6378;SDS011;3222;48.858;10.128;2022-08-19T07:19:31;21.13;;;13.00;;
6378;SDS011;3222;48.858;10.128;2022-08-19T07:21:57;17.17;;;13.63;;
6378;SDS011;3222;48.858;10.128;2022-08-19T07:24:26;14.83;;;12.57;;
6378;SDS011;3222;48.858;10.128;2022-08-19T07:26:54;15.27;;;13.20;;
6378;SDS011;3222;48.858;10.128;2022-08-19T07:29:22;14.93;;;13.00;;
6378;SDS011;3222;48.858;10.128;2022-08-19T07:31:52;15.77;;;13.03;;
6378;SDS011;3222;48.858;10.128;2022-08-19T07:34:21;14.63;;;12.63;;
6378;SDS011;3222;48.858;10.128;2022-08-19T07:36:48;16.37;;;13.10;;
6378;SDS011;3222;48.858;10.128;2022-08-19T07:39:19;15.97;;;13.10;;
6378;SDS011;3222;48.858;10.128;2022-08-19T07:41:47;14.93;;;12.67;;
6378;SDS011;3222;48.858;10.128;2022-08-19T07:44:14;18.03;;;13.67;;
6378;SDS011;3222;48.858;10.128;2022-08-19T07:46:43;14.87;;;13.17;;
6378;SDS011;3222;48.858;10.128;2022-08-19T07:49:11;14.17;;;11.93;;
6378;SDS011;3222;48.858;10.128;2022-08-19T07:51:42;16.93;;;12.87;;
6378;SDS011;3222;48.858;10.128;2022-08-19T07:54:09;14.97;;;12.83;;
6378;SDS011;3222;48.858;10.128;2022-08-19T07:56:34;15.23;;;12.67;;
6378;SDS011;3222;48.858;10.128;2022-08-19T07:59:00;15.00;;;12.13;;
6378;SDS011;3222;48.858;10.128;2022-08-19T08:01:26;15.00;;;12.13;;
6378;SDS011;3222;48.858;10.128;2022-08-19T08:03:53;14.80;;;12.80;;
6378;SDS011;3222;48.858;10.128;2022-08-19T08:06:39;14.53;;;12.87;;
6378;SDS011;3222;48.858;10.128;2022-08-19T08:09:29;14.33;;;12.70;;
6378;SDS011;3222;48.858;10.128;2022-08-19T08:12:33;15.23;;;12.67;;
6378;SDS011;3222;48.858;10.128;2022-08-19T08:14:56;14.17;;;12.17;;
6378;SDS011;3222;48.858;10.128;2022-08-19T08:17:26;14.83;;;12.27;;
6378;SDS011;3222;48.858;10.128;2022-08-19T08:19:53;14.27;;;12.70;;
6378;SDS011;3222;48.858;10.128;2022-08-19T08:22:20;15.70;;;13.40;;
6378;SDS011;3222;48.858;10.128;2022-08-19T08:25:13;16.27;;;12.57;;
6378;SDS011;3222;48.858;10.128;2022-08-19T08:27:42;15.07;;;12.57;;
6378;SDS011;3222;48.858;10.128;2022-08-19T08:30:11;15.40;;;12.40;;
6378;SDS011;3222;48.858;10.128;2022-08-19T08:32:42;15.00;;;12.10;;
6378;SDS011;3222;48.858;10.128;2022-08-19T08:35:09;14.80;;;13.00;;
6378;SDS011;3222;48.858;10.128;2022-08-19T08:37:37;14.37;;;12.80;;
6378;SDS011;3222;48.858;10.128;2022-08-19T08:40:08;15.43;;;12.77;;
6378;SDS011;3222;48.858;10.128;2022-08-19T08:42:57;15.13;;;13.07;;
6378;SDS011;3222;48.858;10.128;2022-08-19T08:45:50;16.40;;;12.93;;
6378;SDS011;3222;48.858;10.128;2022-08-19T08:51:26;16.97;;;13.17;;
6378;SDS011;3222;48.858;10.128;2022-08-19T08:54:04;14.00;;;11.93;;
6378;SDS011;3222;48.858;10.128;2022-08-19T08:56:31;15.17;;;13.20;;
6378;SDS011;3222;48.858;10.128;2022-08-19T08:59:02;17.73;;;13.20;;
6378;SDS011;3222;48.858;10.128;2022-08-19T09:01:49;15.00;;;12.70;;
6378;SDS011;3222;48.858;10.128;2022-08-19T09:04:15;15.47;;;11.93;;
6378;SDS011;3222;48.858;10.128;2022-08-19T09:14:50;15.67;;;12.40;;
6378;SDS011;3222;48.858;10.128;2022-08-19T09:17:24;15.97;;;12.93;;
6378;SDS011;3222;48.858;10.128;2022-08-19T09:20:15;15.23;;;12.83;;
6378;SDS011;3222;48.858;10.128;2022-08-19T09:22:45;15.57;;;11.67;;
6378;SDS011;3222;48.858;10.128;2022-08-19T09:25:12;14.43;;;12.80;;
6378;SDS011;3222;48.858;10.128;2022-08-19T09:27:42;16.50;;;12.00;;
6378;SDS011;3222;48.858;10.128;2022-08-19T09:30:19;15.57;;;12.17;;
6378;SDS011;3222;48.858;10.128;2022-08-19T09:32:48;17.50;;;12.70;;
6378;SDS011;3222;48.858;10.128;2022-08-19T09:35:14;14.37;;;11.57;;
6378;SDS011;3222;48.858;10.128;2022-08-19T09:37:40;15.70;;;11.33;;
6378;SDS011;3222;48.858;10.128;2022-08-19T09:40:08;15.33;;;12.73;;
6378;SDS011;3222;48.858;10.128;2022-08-19T09:42:34;14.80;;;11.93;;
6378;SDS011;3222;48.858;10.128;2022-08-19T09:45:00;14.80;;;11.57;;
6378;SDS011;3222;48.858;10.128;2022-08-19T09:47:28;15.57;;;12.17;;
6378;SDS011;3222;48.858;10.128;2022-08-19T09:49:53;13.93;;;11.60;;
6378;SDS011;3222;48.858;10.128;2022-08-19T09:52:20;14.47;;;12.57;;
6378;SDS011;3222;48.858;10.128;2022-08-19T09:54:45;13.60;;;11.73;;
6378;SDS011;3222;48.858;10.128;2022-08-19T09:57:11;13.83;;;11.40;;
6378;SDS011;3222;48.858;10.128;2022-08-19T09:59:38;14.40;;;12.23;;
6378;SDS011;3222;48.858;10.128;2022-08-19T10:02:04;14.10;;;12.20;;
6378;SDS011;3222;48.858;10.128;2022-08-19T10:04:29;29.00;;;12.20;;
6378;SDS011;3222;48.858;10.128;2022-08-19T10:07:14;14.33;;;11.50;;
6378;SDS011;3222;48.858;10.128;2022-08-19T10:09:40;15.07;;;11.93;;
6378;SDS011;3222;48.858;10.128;2022-08-19T10:12:06;14.50;;;12.43;;
6378;SDS011;3222;48.858;10.128;2022-08-19T10:14:32;15.40;;;12.20;;
6378;SDS011;3222;48.858;10.128;2022-08-19T10:16:59;15.10;;;11.70;;
6378;SDS011;3222;48.858;10.128;2022-08-19T10:19:27;13.40;;;11.43;;
6378;SDS011;3222;48.858;10.128;2022-08-19T10:21:57;16.70;;;12.07;;
6378;SDS011;3222;48.858;10.128;2022-08-19T10:24:23;16.00;;;12.37;;
6378;SDS011;3222;48.858;10.128;2022-08-19T10:26:51;14.67;;;12.50;;
6378;SDS011;3222;48.858;10.128;2022-08-19T10:29:16;16.50;;;13.07;;
6378;SDS011;3222;48.858;10.128;2022-08-19T10:31:42;14.53;;;12.33;;
6378;SDS011;3222;48.858;10.128;2022-08-19T10:34:08;14.23;;;11.67;;
6378;SDS011;3222;48.858;10.128;2022-08-19T10:36:35;15.13;;;12.20;;
6378;SDS011;3222;48.858;10.128;2022-08-19T10:39:06;14.57;;;11.93;;
6378;SDS011;3222;48.858;10.128;2022-08-19T10:41:34;15.40;;;11.50;;
6378;SDS011;3222;48.858;10.128;2022-08-19T10:44:03;14.23;;;11.17;;
6378;SDS011;3222;48.858;10.128;2022-08-19T10:46:33;13.73;;;11.37;;
6378;SDS011;3222;48.858;10.128;2022-08-19T10:49:02;15.97;;;11.70;;
6378;SDS011;3222;48.858;10.128;2022-08-19T10:51:29;15.57;;;11.77;;
6378;SDS011;3222;48.858;10.128;2022-08-19T10:54:14;14.07;;;10.50;;
6378;SDS011;3222;48.858;10.128;2022-08-19T10:56:40;13.47;;;10.23;;
6378;SDS011;3222;48.858;10.128;2022-08-19T10:59:19;14.03;;;10.63;;
6378;SDS011;3222;48.858;10.128;2022-08-19T11:01:59;13.73;;;11.00;;
6378;SDS011;3222;48.858;10.128;2022-08-19T11:04:26;12.00;;;10.00;;
6378;SDS011;3222;48.858;10.128;2022-08-19T11:06:52;11.57;;;9.57;;
6378;SDS011;3222;48.858;10.128;2022-08-19T11:09:19;11.97;;;10.00;;
6378;SDS011;3222;48.858;10.128;2022-08-19T11:11:49;12.47;;;10.07;;
6378;SDS011;3222;48.858;10.128;2022-08-19T11:14:16;10.97;;;9.93;;
6378;SDS011;3222;48.858;10.128;2022-08-19T11:16:45;13.07;;;10.30;;
6378;SDS011;3222;48.858;10.128;2022-08-19T11:19:13;11.43;;;10.23;;
6378;SDS011;3222;48.858;10.128;2022-08-19T11:21:42;12.03;;;10.53;;
6378;SDS011;3222;48.858;10.128;2022-08-19T11:24:11;13.83;;;10.23;;
6378;SDS011;3222;48.858;10.128;2022-08-19T11:26:45;11.57;;;9.33;;
6378;SDS011;3222;48.858;10.128;2022-08-19T11:29:14;13.63;;;11.03;;
6378;SDS011;3222;48.858;10.128;2022-08-19T11:31:42;11.80;;;10.53;;
6378;SDS011;3222;48.858;10.128;2022-08-19T11:34:11;11.77;;;10.13;;
6378;SDS011;3222;48.858;10.128;2022-08-19T11:36:41;10.67;;;9.57;;
6378;SDS011;3222;48.858;10.128;2022-08-19T11:39:09;12.63;;;11.33;;
6378;SDS011;3222;48.858;10.128;2022-08-19T11:41:36;11.37;;;10.00;;
6378;SDS011;3222;48.858;10.128;2022-08-19T11:44:02;11.97;;;10.67;;
6378;SDS011;3222;48.858;10.128;2022-08-19T11:46:29;12.80;;;11.13;;
6378;SDS011;3222;48.858;10.128;2022-08-19T11:48:56;11.83;;;10.30;;
6378;SDS011;3222;48.858;10.128;2022-08-19T11:51:24;11.67;;;10.40;;
6378;SDS011;3222;48.858;10.128;2022-08-19T11:53:51;11.43;;;10.23;;
6378;SDS011;3222;48.858;10.128;2022-08-19T11:56:18;13.70;;;10.57;;
6378;SDS011;3222;48.858;10.128;2022-08-19T11:58:45;14.17;;;10.97;;
6378;SDS011;3222;48.858;10.128;2022-08-19T12:01:12;13.17;;;11.37;;
6378;SDS011;3222;48.858;10.128;2022-08-19T12:03:41;11.10;;;9.73;;
6378;SDS011;3222;48.858;10.128;2022-08-19T12:06:09;12.90;;;10.63;;
6378;SDS011;3222;48.858;10.128;2022-08-19T12:08:38;12.00;;;10.53;;
6378;SDS011;3222;48.858;10.128;2022-08-19T12:11:08;12.33;;;10.30;;
6378;SDS011;3222;48.858;10.128;2022-08-19T12:13:35;12.33;;;10.50;;
6378;SDS011;3222;48.858;10.128;2022-08-19T12:16:06;12.33;;;10.77;;
6378;SDS011;3222;48.858;10.128;2022-08-19T12:18:35;12.70;;;10.23;;
6378;SDS011;3222;48.858;10.128;2022-08-19T12:21:01;12.97;;;10.63;;
6378;SDS011;3222;48.858;10.128;2022-08-19T12:23:28;12.23;;;10.93;;
6378;SDS011;3222;48.858;10.128;2022-08-19T12:25:54;13.97;;;10.70;;
6378;SDS011;3222;48.858;10.128;2022-08-19T12:28:22;11.13;;;10.03;;
6378;SDS011;3222;48.858;10.128;2022-08-19T12:30:49;10.40;;;9.30;;
6378;SDS011;3222;48.858;10.128;2022-08-19T12:33:16;10.93;;;9.70;;
6378;SDS011;3222;48.858;10.128;2022-08-19T12:35:43;10.50;;;9.50;;
6378;SDS011;3222;48.858;10.128;2022-08-19T12:38:11;11.67;;;10.30;;
6378;SDS011;3222;48.858;10.128;2022-08-19T12:40:38;13.97;;;12.00;;
6378;SDS011;3222;48.858;10.128;2022-08-19T12:43:05;13.07;;;11.30;;
6378;SDS011;3222;48.858;10.128;2022-08-19T12:45:31;12.77;;;11.37;;
6378;SDS011;3222;48.858;10.128;2022-08-19T12:47:57;13.07;;;10.93;;
6378;SDS011;3222;48.858;10.128;2022-08-19T12:50:23;15.23;;;12.53;;
6378;SDS011;3222;48.858;10.128;2022-08-19T12:52:49;15.57;;;11.77;;
6378;SDS011;3222;48.858;10.128;2022-08-19T12:55:15;15.17;;;11.93;;
6378;SDS011;3222;48.858;10.128;2022-08-19T12:57:41;13.93;;;11.70;;
6378;SDS011;3222;48.858;10.128;2022-08-19T13:00:12;12.67;;;11.30;;
6378;SDS011;3222;48.858;10.128;2022-08-19T13:02:42;11.63;;;10.43;;
6378;SDS011;3222;48.858;10.128;2022-08-19T13:05:10;11.63;;;9.93;;
6378;SDS011;3222;48.858;10.128;2022-08-19T13:07:38;10.17;;;9.07;;
6378;SDS011;3222;48.858;10.128;2022-08-19T13:10:05;9.97;;;8.20;;
6378;SDS011;3222;48.858;10.128;2022-08-19T13:12:32;10.23;;;7.80;;
6378;SDS011;3222;48.858;10.128;2022-08-19T13:14:58;8.30;;;7.50;;
6378;SDS011;3222;48.858;10.128;2022-08-19T13:17:23;9.37;;;6.97;;
6378;SDS011;3222;48.858;10.128;2022-08-19T13:19:49;8.00;;;6.30;;
6378;SDS011;3222;48.858;10.128;2022-08-19T13:22:16;7.30;;;6.60;;
6378;SDS011;3222;48.858;10.128;2022-08-19T13:24:41;7.70;;;6.87;;
6378;SDS011;3222;48.858;10.128;2022-08-19T13:27:07;6.93;;;6.33;;
6378;SDS011;3222;48.858;10.128;2022-08-19T13:29:33;7.03;;;6.33;;
6378;SDS011;3222;48.858;10.128;2022-08-19T13:32:17;7.27;;;6.57;;
6378;SDS011;3222;48.858;10.128;2022-08-19T13:35:02;7.53;;;6.77;;
6378;SDS011;3222;48.858;10.128;2022-08-19T13:37:28;7.70;;;7.00;;
6378;SDS011;3222;48.858;10.128;2022-08-19T13:40:16;7.53;;;6.70;;
6378;SDS011;3222;48.858;10.128;2022-08-19T13:42:44;7.27;;;6.57;;
6378;SDS011;3222;48.858;10.128;2022-08-19T13:45:12;7.57;;;6.83;;
6378;SDS011;3222;48.858;10.128;2022-08-19T13:47:40;7.53;;;6.80;;
6378;SDS011;3222;48.858;10.128;2022-08-19T13:50:13;7.40;;;6.70;;
6378;SDS011;3222;48.858;10.128;2022-08-19T13:52:41;8.90;;;6.60;;
6378;SDS011;3222;48.858;10.128;2022-08-19T13:55:08;7.70;;;6.70;;
6378;SDS011;3222;48.858;10.128;2022-08-19T13:57:34;7.20;;;6.50;;
6378;SDS011;3222;48.858;10.128;2022-08-19T14:00:02;7.47;;;6.67;;
6378;SDS011;3222;48.858;10.128;2022-08-19T14:02:29;7.03;;;6.20;;
6378;SDS011;3222;48.858;10.128;2022-08-19T14:04:55;6.73;;;6.03;;
6378;SDS011;3222;48.858;10.128;2022-08-19T14:07:21;6.93;;;6.27;;
6378;SDS011;3222;48.858;10.128;2022-08-19T14:09:49;7.03;;;6.37;;
6378;SDS011;3222;48.858;10.128;2022-08-19T14:12:18;6.90;;;5.50;;
6378;SDS011;3222;48.858;10.128;2022-08-19T14:14:45;8.10;;;7.27;;
6378;SDS011;3222;48.858;10.128;2022-08-19T14:17:11;7.77;;;6.03;;
6378;SDS011;3222;48.858;10.128;2022-08-19T14:19:37;6.93;;;6.23;;
6378;SDS011;3222;48.858;10.128;2022-08-19T14:22:02;6.57;;;5.87;;
6378;SDS011;3222;48.858;10.128;2022-08-19T14:24:29;7.10;;;6.40;;
6378;SDS011;3222;48.858;10.128;2022-08-19T14:26:55;7.97;;;6.27;;
6378;SDS011;3222;48.858;10.128;2022-08-19T14:29:23;7.30;;;6.60;;
6378;SDS011;3222;48.858;10.128;2022-08-19T14:31:49;7.87;;;7.10;;
6378;SDS011;3222;48.858;10.128;2022-08-19T14:34:15;7.37;;;6.57;;
6378;SDS011;3222;48.858;10.128;2022-08-19T14:36:40;9.33;;;7.30;;
6378;SDS011;3222;48.858;10.128;2022-08-19T14:39:06;7.87;;;7.03;;
6378;SDS011;3222;48.858;10.128;2022-08-19T14:41:33;8.13;;;6.77;;
6378;SDS011;3222;48.858;10.128;2022-08-19T14:43:59;7.27;;;6.47;;
6378;SDS011;3222;48.858;10.128;2022-08-19T14:46:26;7.60;;;6.53;;
6378;SDS011;3222;48.858;10.128;2022-08-19T14:48:52;6.57;;;5.93;;
6378;SDS011;3222;48.858;10.128;2022-08-19T14:51:20;6.73;;;6.13;;
6378;SDS011;3222;48.858;10.128;2022-08-19T14:53:47;8.00;;;6.03;;
6378;SDS011;3222;48.858;10.128;2022-08-19T14:56:17;7.80;;;6.17;;
6378;SDS011;3222;48.858;10.128;2022-08-19T14:58:45;6.30;;;5.70;;
6378;SDS011;3222;48.858;10.128;2022-08-19T15:01:11;6.90;;;5.43;;